Terminal Aerodrome Forecast
Issued by NWS Wilmington, NC

Home | Current Version | Previous Version | Text Only | Print | Product List | Glossary On
Versions: 1 2 3 4 5 6 7 8 9 10 11 12 13 14 15 16 17 18 19 20 21 22 23 24 25 26 27 28 29 30 31 32 33
000
FTUS42 KILM 261700 CCB
TAFILM
TAF COR
KILM 261722Z 2618/2718 35012KT P6SM -RA BKN016 BKN050
     FM270000 27005KT P6SM SCT050
      TEMPO 2710/2712 4SM BR
     FM271400 28011KT P6SM SCT080=

USA.gov is the U.S. government's official web portal to all federal, state and local government web resources and services.